sensor_id;sensor_type;location;lat;lon;timestamp;P1;durP1;ratioP1;P2;durP2;ratioP2
25615;SDS011;13482;48.234;13.006;2023-07-08T00:00:52;3.58;;;2.28;;
25615;SDS011;13482;48.234;13.006;2023-07-08T00:03:21;3.38;;;2.42;;
25615;SDS011;13482;48.234;13.006;2023-07-08T00:05:50;3.60;;;2.30;;
25615;SDS011;13482;48.234;13.006;2023-07-08T00:08:22;4.15;;;2.38;;
25615;SDS011;13482;48.234;13.006;2023-07-08T00:10:50;3.80;;;2.47;;
25615;SDS011;13482;48.234;13.006;2023-07-08T00:13:18;3.35;;;2.15;;
25615;SDS011;13482;48.234;13.006;2023-07-08T00:15:45;3.22;;;2.25;;
25615;SDS011;13482;48.234;13.006;2023-07-08T00:18:14;3.35;;;2.20;;
25615;SDS011;13482;48.234;13.006;2023-07-08T00:20:45;3.45;;;2.25;;
25615;SDS011;13482;48.234;13.006;2023-07-08T00:23:15;3.00;;;2.20;;
25615;SDS011;13482;48.234;13.006;2023-07-08T00:25:48;4.53;;;2.33;;
25615;SDS011;13482;48.234;13.006;2023-07-08T00:28:17;3.38;;;2.10;;
25615;SDS011;13482;48.234;13.006;2023-07-08T00:30:48;4.00;;;2.35;;
25615;SDS011;13482;48.234;13.006;2023-07-08T00:33:15;3.17;;;2.30;;
25615;SDS011;13482;48.234;13.006;2023-07-08T00:35:44;3.53;;;2.15;;
25615;SDS011;13482;48.234;13.006;2023-07-08T00:38:13;3.03;;;2.13;;
25615;SDS011;13482;48.234;13.006;2023-07-08T00:40:50;2.92;;;2.15;;
25615;SDS011;13482;48.234;13.006;2023-07-08T00:43:53;2.90;;;2.10;;
25615;SDS011;13482;48.234;13.006;2023-07-08T00:51:38;3.50;;;2.15;;
25615;SDS011;13482;48.234;13.006;2023-07-08T00:54:16;3.22;;;2.30;;
25615;SDS011;13482;48.234;13.006;2023-07-08T00:56:47;2.83;;;1.95;;
25615;SDS011;13482;48.234;13.006;2023-07-08T01:02:22;3.47;;;2.45;;
25615;SDS011;13482;48.234;13.006;2023-07-08T01:05:02;3.90;;;2.30;;
25615;SDS011;13482;48.234;13.006;2023-07-08T01:07:36;3.70;;;2.40;;
25615;SDS011;13482;48.234;13.006;2023-07-08T01:10:09;3.20;;;2.30;;
25615;SDS011;13482;48.234;13.006;2023-07-08T01:12:43;2.67;;;2.08;;
25615;SDS011;13482;48.234;13.006;2023-07-08T01:15:14;3.30;;;2.15;;
25615;SDS011;13482;48.234;13.006;2023-07-08T01:17:43;3.30;;;2.10;;
25615;SDS011;13482;48.234;13.006;2023-07-08T01:20:11;3.10;;;2.10;;
25615;SDS011;13482;48.234;13.006;2023-07-08T01:22:42;3.13;;;2.15;;
25615;SDS011;13482;48.234;13.006;2023-07-08T01:25:10;3.67;;;2.40;;
25615;SDS011;13482;48.234;13.006;2023-07-08T01:27:44;3.67;;;2.40;;
25615;SDS011;13482;48.234;13.006;2023-07-08T01:30:15;3.53;;;2.30;;
25615;SDS011;13482;48.234;13.006;2023-07-08T01:32:45;3.90;;;2.17;;
25615;SDS011;13482;48.234;13.006;2023-07-08T01:35:17;3.25;;;2.40;;
25615;SDS011;13482;48.234;13.006;2023-07-08T01:37:56;3.05;;;2.30;;
25615;SDS011;13482;48.234;13.006;2023-07-08T01:40:28;3.35;;;2.13;;
25615;SDS011;13482;48.234;13.006;2023-07-08T01:43:03;3.38;;;2.22;;
25615;SDS011;13482;48.234;13.006;2023-07-08T01:45:36;3.72;;;2.22;;
25615;SDS011;13482;48.234;13.006;2023-07-08T01:48:08;3.10;;;2.22;;
25615;SDS011;13482;48.234;13.006;2023-07-08T01:50:59;3.22;;;2.25;;
25615;SDS011;13482;48.234;13.006;2023-07-08T01:53:34;3.33;;;2.22;;
25615;SDS011;13482;48.234;13.006;2023-07-08T01:56:04;3.00;;;2.00;;
25615;SDS011;13482;48.234;13.006;2023-07-08T01:58:33;3.67;;;2.40;;
25615;SDS011;13482;48.234;13.006;2023-07-08T02:01:01;3.75;;;2.10;;
25615;SDS011;13482;48.234;13.006;2023-07-08T02:03:30;2.85;;;2.13;;
25615;SDS011;13482;48.234;13.006;2023-07-08T02:05:58;3.28;;;2.15;;
25615;SDS011;13482;48.234;13.006;2023-07-08T02:08:26;3.00;;;2.13;;
25615;SDS011;13482;48.234;13.006;2023-07-08T02:10:57;4.22;;;2.40;;
25615;SDS011;13482;48.234;13.006;2023-07-08T02:13:25;3.25;;;1.92;;
25615;SDS011;13482;48.234;13.006;2023-07-08T02:15:53;4.07;;;2.53;;
25615;SDS011;13482;48.234;13.006;2023-07-08T02:18:21;2.70;;;1.98;;
25615;SDS011;13482;48.234;13.006;2023-07-08T02:20:51;2.90;;;1.90;;
25615;SDS011;13482;48.234;13.006;2023-07-08T02:23:19;2.97;;;2.28;;
25615;SDS011;13482;48.234;13.006;2023-07-08T02:25:53;3.05;;;2.30;;
25615;SDS011;13482;48.234;13.006;2023-07-08T02:28:22;3.90;;;2.17;;
25615;SDS011;13482;48.234;13.006;2023-07-08T02:30:49;3.58;;;2.42;;
25615;SDS011;13482;48.234;13.006;2023-07-08T02:33:17;3.60;;;2.50;;
25615;SDS011;13482;48.234;13.006;2023-07-08T02:35:44;3.78;;;2.47;;
25615;SDS011;13482;48.234;13.006;2023-07-08T02:38:12;3.13;;;2.15;;
25615;SDS011;13482;48.234;13.006;2023-07-08T02:40:40;4.70;;;2.50;;
25615;SDS011;13482;48.234;13.006;2023-07-08T02:43:10;3.83;;;2.30;;
25615;SDS011;13482;48.234;13.006;2023-07-08T02:45:37;3.28;;;2.30;;
25615;SDS011;13482;48.234;13.006;2023-07-08T02:48:05;3.20;;;2.20;;
25615;SDS011;13482;48.234;13.006;2023-07-08T02:50:32;3.70;;;2.25;;
25615;SDS011;13482;48.234;13.006;2023-07-08T02:53:00;3.20;;;2.20;;
25615;SDS011;13482;48.234;13.006;2023-07-08T02:55:27;3.75;;;2.40;;
25615;SDS011;13482;48.234;13.006;2023-07-08T02:57:55;2.80;;;1.90;;
25615;SDS011;13482;48.234;13.006;2023-07-08T03:00:22;3.20;;;2.10;;
25615;SDS011;13482;48.234;13.006;2023-07-08T03:02:49;2.45;;;1.92;;
25615;SDS011;13482;48.234;13.006;2023-07-08T03:05:17;3.78;;;2.35;;
25615;SDS011;13482;48.234;13.006;2023-07-08T03:07:45;2.75;;;2.20;;
25615;SDS011;13482;48.234;13.006;2023-07-08T03:10:13;4.82;;;1.95;;
25615;SDS011;13482;48.234;13.006;2023-07-08T03:12:40;2.97;;;2.15;;
25615;SDS011;13482;48.234;13.006;2023-07-08T03:15:07;3.03;;;2.10;;
25615;SDS011;13482;48.234;13.006;2023-07-08T03:17:36;3.25;;;2.45;;
25615;SDS011;13482;48.234;13.006;2023-07-08T03:20:03;3.95;;;2.67;;
25615;SDS011;13482;48.234;13.006;2023-07-08T03:22:32;3.28;;;2.30;;
25615;SDS011;13482;48.234;13.006;2023-07-08T03:25:00;3.40;;;2.05;;
25615;SDS011;13482;48.234;13.006;2023-07-08T03:27:27;3.38;;;2.40;;
25615;SDS011;13482;48.234;13.006;2023-07-08T03:29:55;3.40;;;2.45;;
25615;SDS011;13482;48.234;13.006;2023-07-08T03:32:23;3.05;;;2.28;;
25615;SDS011;13482;48.234;13.006;2023-07-08T03:34:52;3.40;;;2.20;;
25615;SDS011;13482;48.234;13.006;2023-07-08T03:37:20;2.70;;;2.03;;
25615;SDS011;13482;48.234;13.006;2023-07-08T03:39:47;3.03;;;2.03;;
25615;SDS011;13482;48.234;13.006;2023-07-08T03:42:15;2.35;;;1.73;;
25615;SDS011;13482;48.234;13.006;2023-07-08T03:44:42;3.58;;;2.30;;
25615;SDS011;13482;48.234;13.006;2023-07-08T03:47:09;3.15;;;2.10;;
25615;SDS011;13482;48.234;13.006;2023-07-08T03:49:37;3.38;;;2.22;;
25615;SDS011;13482;48.234;13.006;2023-07-08T03:52:05;2.95;;;1.83;;
25615;SDS011;13482;48.234;13.006;2023-07-08T03:54:41;3.13;;;2.20;;
25615;SDS011;13482;48.234;13.006;2023-07-08T03:57:10;3.03;;;2.00;;
25615;SDS011;13482;48.234;13.006;2023-07-08T03:59:38;3.03;;;2.13;;
25615;SDS011;13482;48.234;13.006;2023-07-08T04:02:07;3.38;;;2.15;;
25615;SDS011;13482;48.234;13.006;2023-07-08T04:04:38;3.45;;;2.00;;
25615;SDS011;13482;48.234;13.006;2023-07-08T04:07:05;3.33;;;2.30;;
25615;SDS011;13482;48.234;13.006;2023-07-08T04:09:33;2.78;;;2.00;;
25615;SDS011;13482;48.234;13.006;2023-07-08T04:12:00;2.95;;;1.83;;
25615;SDS011;13482;48.234;13.006;2023-07-08T04:14:28;3.25;;;2.33;;
25615;SDS011;13482;48.234;13.006;2023-07-08T04:16:56;3.10;;;2.03;;
25615;SDS011;13482;48.234;13.006;2023-07-08T04:19:25;3.08;;;2.00;;
25615;SDS011;13482;48.234;13.006;2023-07-08T04:21:53;3.72;;;2.28;;
25615;SDS011;13482;48.234;13.006;2023-07-08T04:24:21;3.58;;;2.20;;
25615;SDS011;13482;48.234;13.006;2023-07-08T04:26:48;3.00;;;2.10;;
25615;SDS011;13482;48.234;13.006;2023-07-08T04:29:19;3.00;;;2.20;;
25615;SDS011;13482;48.234;13.006;2023-07-08T04:31:48;3.20;;;2.10;;
25615;SDS011;13482;48.234;13.006;2023-07-08T04:34:16;2.33;;;1.85;;
25615;SDS011;13482;48.234;13.006;2023-07-08T04:36:44;3.45;;;2.28;;
25615;SDS011;13482;48.234;13.006;2023-07-08T04:39:12;3.05;;;2.20;;
25615;SDS011;13482;48.234;13.006;2023-07-08T04:41:40;2.97;;;2.20;;
25615;SDS011;13482;48.234;13.006;2023-07-08T04:44:11;3.15;;;2.10;;
25615;SDS011;13482;48.234;13.006;2023-07-08T04:49:20;3.50;;;2.38;;
25615;SDS011;13482;48.234;13.006;2023-07-08T04:51:50;3.42;;;2.38;;
25615;SDS011;13482;48.234;13.006;2023-07-08T04:54:18;2.97;;;2.22;;
25615;SDS011;13482;48.234;13.006;2023-07-08T04:56:47;2.95;;;1.95;;
25615;SDS011;13482;48.234;13.006;2023-07-08T04:59:18;3.45;;;2.50;;
25615;SDS011;13482;48.234;13.006;2023-07-08T05:01:48;3.30;;;2.30;;
25615;SDS011;13482;48.234;13.006;2023-07-08T05:04:20;3.00;;;2.00;;
25615;SDS011;13482;48.234;13.006;2023-07-08T05:06:48;2.67;;;1.92;;
25615;SDS011;13482;48.234;13.006;2023-07-08T05:09:17;4.65;;;2.33;;
25615;SDS011;13482;48.234;13.006;2023-07-08T05:11:44;2.85;;;2.22;;
25615;SDS011;13482;48.234;13.006;2023-07-08T05:14:12;3.20;;;2.08;;
25615;SDS011;13482;48.234;13.006;2023-07-08T05:16:40;2.90;;;2.10;;
25615;SDS011;13482;48.234;13.006;2023-07-08T05:19:08;2.92;;;2.20;;
25615;SDS011;13482;48.234;13.006;2023-07-08T05:21:36;3.25;;;2.05;;
25615;SDS011;13482;48.234;13.006;2023-07-08T05:24:05;2.83;;;2.05;;
25615;SDS011;13482;48.234;13.006;2023-07-08T05:26:33;3.47;;;2.33;;
25615;SDS011;13482;48.234;13.006;2023-07-08T05:29:01;2.90;;;2.20;;
25615;SDS011;13482;48.234;13.006;2023-07-08T05:31:29;3.90;;;2.42;;
25615;SDS011;13482;48.234;13.006;2023-07-08T05:34:13;3.00;;;2.30;;
25615;SDS011;13482;48.234;13.006;2023-07-08T05:36:43;3.88;;;2.38;;
25615;SDS011;13482;48.234;13.006;2023-07-08T05:39:15;3.10;;;1.92;;
25615;SDS011;13482;48.234;13.006;2023-07-08T05:41:43;2.78;;;2.00;;
25615;SDS011;13482;48.234;13.006;2023-07-08T05:44:11;3.40;;;2.30;;
25615;SDS011;13482;48.234;13.006;2023-07-08T05:46:39;2.80;;;2.10;;
25615;SDS011;13482;48.234;13.006;2023-07-08T05:49:06;2.60;;;2.00;;
25615;SDS011;13482;48.234;13.006;2023-07-08T05:51:35;3.00;;;2.22;;
25615;SDS011;13482;48.234;13.006;2023-07-08T05:54:04;2.70;;;2.00;;
25615;SDS011;13482;48.234;13.006;2023-07-08T05:56:31;2.75;;;2.10;;
25615;SDS011;13482;48.234;13.006;2023-07-08T05:58:59;3.22;;;1.95;;
25615;SDS011;13482;48.234;13.006;2023-07-08T06:01:26;2.55;;;1.73;;
25615;SDS011;13482;48.234;13.006;2023-07-08T06:03:54;3.30;;;2.28;;
25615;SDS011;13482;48.234;13.006;2023-07-08T06:06:25;2.72;;;1.83;;
25615;SDS011;13482;48.234;13.006;2023-07-08T06:08:55;2.95;;;1.83;;
25615;SDS011;13482;48.234;13.006;2023-07-08T06:11:23;3.30;;;2.30;;
25615;SDS011;13482;48.234;13.006;2023-07-08T06:13:50;3.85;;;2.30;;
25615;SDS011;13482;48.234;13.006;2023-07-08T06:16:18;3.58;;;2.33;;
25615;SDS011;13482;48.234;13.006;2023-07-08T06:19:04;3.28;;;2.10;;
25615;SDS011;13482;48.234;13.006;2023-07-08T06:21:32;3.60;;;2.30;;
25615;SDS011;13482;48.234;13.006;2023-07-08T06:24:00;2.53;;;2.10;;
25615;SDS011;13482;48.234;13.006;2023-07-08T06:26:27;3.13;;;2.00;;
25615;SDS011;13482;48.234;13.006;2023-07-08T06:28:54;2.75;;;2.00;;
25615;SDS011;13482;48.234;13.006;2023-07-08T06:31:22;3.45;;;2.10;;
25615;SDS011;13482;48.234;13.006;2023-07-08T06:33:50;3.33;;;2.20;;
25615;SDS011;13482;48.234;13.006;2023-07-08T06:36:18;2.95;;;2.08;;
25615;SDS011;13482;48.234;13.006;2023-07-08T06:38:45;3.15;;;2.10;;
25615;SDS011;13482;48.234;13.006;2023-07-08T06:41:13;2.63;;;1.90;;
25615;SDS011;13482;48.234;13.006;2023-07-08T06:43:40;4.45;;;2.20;;
25615;SDS011;13482;48.234;13.006;2023-07-08T06:46:07;3.03;;;2.13;;
25615;SDS011;13482;48.234;13.006;2023-07-08T06:48:35;3.47;;;2.22;;
25615;SDS011;13482;48.234;13.006;2023-07-08T06:51:03;2.58;;;1.92;;
25615;SDS011;13482;48.234;13.006;2023-07-08T06:53:30;3.15;;;2.13;;
25615;SDS011;13482;48.234;13.006;2023-07-08T06:55:57;3.45;;;2.00;;
25615;SDS011;13482;48.234;13.006;2023-07-08T06:58:25;3.25;;;2.20;;
25615;SDS011;13482;48.234;13.006;2023-07-08T07:00:53;3.15;;;2.17;;
25615;SDS011;13482;48.234;13.006;2023-07-08T07:03:21;2.45;;;1.88;;
25615;SDS011;13482;48.234;13.006;2023-07-08T07:05:50;3.10;;;2.28;;
25615;SDS011;13482;48.234;13.006;2023-07-08T07:08:18;3.53;;;2.10;;
25615;SDS011;13482;48.234;13.006;2023-07-08T07:10:45;4.15;;;2.15;;
25615;SDS011;13482;48.234;13.006;2023-07-08T07:13:13;3.03;;;2.30;;
25615;SDS011;13482;48.234;13.006;2023-07-08T07:15:40;2.45;;;1.95;;
25615;SDS011;13482;48.234;13.006;2023-07-08T07:18:08;4.05;;;2.30;;
25615;SDS011;13482;48.234;13.006;2023-07-08T07:20:36;3.17;;;2.00;;
25615;SDS011;13482;48.234;13.006;2023-07-08T07:23:04;3.25;;;2.40;;
25615;SDS011;13482;48.234;13.006;2023-07-08T07:25:32;2.80;;;2.20;;
25615;SDS011;13482;48.234;13.006;2023-07-08T07:28:00;2.80;;;2.20;;
25615;SDS011;13482;48.234;13.006;2023-07-08T07:30:27;2.40;;;1.85;;
25615;SDS011;13482;48.234;13.006;2023-07-08T07:32:58;2.30;;;1.75;;
25615;SDS011;13482;48.234;13.006;2023-07-08T07:35:27;3.10;;;1.95;;
25615;SDS011;13482;48.234;13.006;2023-07-08T07:37:54;2.42;;;2.00;;
25615;SDS011;13482;48.234;13.006;2023-07-08T07:40:21;3.63;;;2.20;;
25615;SDS011;13482;48.234;13.006;2023-07-08T07:42:49;2.35;;;1.95;;
25615;SDS011;13482;48.234;13.006;2023-07-08T07:45:16;2.97;;;2.00;;
25615;SDS011;13482;48.234;13.006;2023-07-08T07:47:44;3.05;;;2.28;;
25615;SDS011;13482;48.234;13.006;2023-07-08T07:50:12;2.60;;;2.10;;
25615;SDS011;13482;48.234;13.006;2023-07-08T07:52:40;3.00;;;2.33;;
25615;SDS011;13482;48.234;13.006;2023-07-08T07:55:09;3.40;;;2.22;;
25615;SDS011;13482;48.234;13.006;2023-07-08T07:57:37;3.00;;;2.30;;
25615;SDS011;13482;48.234;13.006;2023-07-08T08:00:05;3.67;;;2.20;;
25615;SDS011;13482;48.234;13.006;2023-07-08T08:02:33;2.83;;;2.00;;
25615;SDS011;13482;48.234;13.006;2023-07-08T08:05:02;2.80;;;2.15;;
25615;SDS011;13482;48.234;13.006;2023-07-08T08:07:30;2.35;;;2.00;;
25615;SDS011;13482;48.234;13.006;2023-07-08T08:09:57;2.85;;;2.13;;
25615;SDS011;13482;48.234;13.006;2023-07-08T08:12:24;2.92;;;2.10;;
25615;SDS011;13482;48.234;13.006;2023-07-08T08:14:56;3.05;;;2.25;;
25615;SDS011;13482;48.234;13.006;2023-07-08T08:17:23;2.38;;;2.00;;
25615;SDS011;13482;48.234;13.006;2023-07-08T08:19:51;3.03;;;2.47;;
25615;SDS011;13482;48.234;13.006;2023-07-08T08:22:18;2.75;;;2.10;;
25615;SDS011;13482;48.234;13.006;2023-07-08T08:24:47;3.88;;;2.15;;
25615;SDS011;13482;48.234;13.006;2023-07-08T08:27:16;2.60;;;2.08;;
25615;SDS011;13482;48.234;13.006;2023-07-08T08:29:43;3.03;;;2.40;;
25615;SDS011;13482;48.234;13.006;2023-07-08T08:32:11;2.42;;;1.95;;
25615;SDS011;13482;48.234;13.006;2023-07-08T08:34:40;2.72;;;2.00;;
25615;SDS011;13482;48.234;13.006;2023-07-08T08:37:09;2.95;;;2.20;;
25615;SDS011;13482;48.234;13.006;2023-07-08T08:39:36;2.83;;;2.20;;
25615;SDS011;13482;48.234;13.006;2023-07-08T08:42:04;3.30;;;2.13;;
25615;SDS011;13482;48.234;13.006;2023-07-08T08:44:43;3.20;;;1.92;;
25615;SDS011;13482;48.234;13.006;2023-07-08T08:49:50;2.67;;;2.00;;
25615;SDS011;13482;48.234;13.006;2023-07-08T08:52:27;2.58;;;2.10;;
25615;SDS011;13482;48.234;13.006;2023-07-08T08:54:55;2.95;;;2.17;;
25615;SDS011;13482;48.234;13.006;2023-07-08T09:00:13;3.20;;;2.00;;
25615;SDS011;13482;48.234;13.006;2023-07-08T09:05:28;3.17;;;2.20;;
25615;SDS011;13482;48.234;13.006;2023-07-08T09:08:10;2.58;;;2.00;;
25615;SDS011;13482;48.234;13.006;2023-07-08T09:13:47;3.45;;;2.22;;
25615;SDS011;13482;48.234;13.006;2023-07-08T09:19:15;2.60;;;2.25;;
25615;SDS011;13482;48.234;13.006;2023-07-08T09:27:30;2.80;;;2.15;;
25615;SDS011;13482;48.234;13.006;2023-07-08T09:29:58;5.82;;;2.53;;
25615;SDS011;13482;48.234;13.006;2023-07-08T09:32:26;3.03;;;2.28;;
25615;SDS011;13482;48.234;13.006;2023-07-08T09:34:57;2.88;;;2.35;;
25615;SDS011;13482;48.234;13.006;2023-07-08T09:37:33;2.67;;;2.42;;
25615;SDS011;13482;48.234;13.006;2023-07-08T09:40:14;3.28;;;2.40;;
25615;SDS011;13482;48.234;13.006;2023-07-08T09:42:46;2.50;;;1.90;;
25615;SDS011;13482;48.234;13.006;2023-07-08T09:45:24;2.65;;;2.15;;
25615;SDS011;13482;48.234;13.006;2023-07-08T09:47:53;3.13;;;2.28;;
25615;SDS011;13482;48.234;13.006;2023-07-08T09:50:29;3.07;;;2.13;;
25615;SDS011;13482;48.234;13.006;2023-07-08T09:53:00;2.45;;;2.08;;
25615;SDS011;13482;48.234;13.006;2023-07-08T09:55:28;4.65;;;2.05;;
25615;SDS011;13482;48.234;13.006;2023-07-08T09:57:56;3.05;;;2.30;;
25615;SDS011;13482;48.234;13.006;2023-07-08T10:01:15;3.05;;;2.33;;
25615;SDS011;13482;48.234;13.006;2023-07-08T10:03:26;2.72;;;2.22;;
25615;SDS011;13482;48.234;13.006;2023-07-08T10:05:58;2.63;;;2.17;;
25615;SDS011;13482;48.234;13.006;2023-07-08T10:08:43;5.90;;;2.38;;
25615;SDS011;13482;48.234;13.006;2023-07-08T10:11:25;3.00;;;2.47;;
25615;SDS011;13482;48.234;13.006;2023-07-08T10:13:59;3.15;;;2.30;;
25615;SDS011;13482;48.234;13.006;2023-07-08T10:16:40;4.35;;;2.47;;
25615;SDS011;13482;48.234;13.006;2023-07-08T10:19:13;3.28;;;2.38;;
25615;SDS011;13482;48.234;13.006;2023-07-08T10:24:51;3.13;;;2.40;;
25615;SDS011;13482;48.234;13.006;2023-07-08T10:30:16;2.75;;;2.35;;
25615;SDS011;13482;48.234;13.006;2023-07-08T10:38:32;2.17;;;1.95;;
25615;SDS011;13482;48.234;13.006;2023-07-08T10:44:35;2.95;;;2.08;;
25615;SDS011;13482;48.234;13.006;2023-07-08T10:51:02;2.63;;;2.15;;
25615;SDS011;13482;48.234;13.006;2023-07-08T10:53:46;2.80;;;2.20;;
25615;SDS011;13482;48.234;13.006;2023-07-08T11:06:55;3.05;;;2.38;;
25615;SDS011;13482;48.234;13.006;2023-07-08T11:09:13;2.92;;;2.40;;
25615;SDS011;13482;48.234;13.006;2023-07-08T11:11:53;3.28;;;2.75;;
25615;SDS011;13482;48.234;13.006;2023-07-08T11:14:51;3.40;;;2.90;;
25615;SDS011;13482;48.234;13.006;2023-07-08T11:17:49;3.58;;;2.80;;
25615;SDS011;13482;48.234;13.006;2023-07-08T11:20:45;2.70;;;2.33;;
25615;SDS011;13482;48.234;13.006;2023-07-08T11:23:56;3.20;;;2.42;;
25615;SDS011;13482;48.234;13.006;2023-07-08T11:26:53;2.90;;;2.35;;
25615;SDS011;13482;48.234;13.006;2023-07-08T11:29:52;2.70;;;2.40;;
25615;SDS011;13482;48.234;13.006;2023-07-08T11:32:28;3.42;;;2.85;;
25615;SDS011;13482;48.234;13.006;2023-07-08T11:35:00;3.38;;;2.90;;
25615;SDS011;13482;48.234;13.006;2023-07-08T11:37:31;3.55;;;2.92;;
25615;SDS011;13482;48.234;13.006;2023-07-08T11:40:08;4.45;;;2.85;;
25615;SDS011;13482;48.234;13.006;2023-07-08T11:42:49;3.42;;;3.13;;
25615;SDS011;13482;48.234;13.006;2023-07-08T11:48:15;4.20;;;3.22;;
25615;SDS011;13482;48.234;13.006;2023-07-08T11:50:49;3.75;;;3.10;;
25615;SDS011;13482;48.234;13.006;2023-07-08T11:53:32;3.70;;;2.90;;
25615;SDS011;13482;48.234;13.006;2023-07-08T11:56:18;3.72;;;2.65;;
25615;SDS011;13482;48.234;13.006;2023-07-08T11:58:59;4.53;;;2.70;;
25615;SDS011;13482;48.234;13.006;2023-07-08T12:07:10;3.15;;;2.60;;
25615;SDS011;13482;48.234;13.006;2023-07-08T12:09:48;2.92;;;2.63;;
25615;SDS011;13482;48.234;13.006;2023-07-08T12:12:31;3.63;;;2.75;;
25615;SDS011;13482;48.234;13.006;2023-07-08T12:17:51;3.58;;;2.63;;
25615;SDS011;13482;48.234;13.006;2023-07-08T12:20:46;3.55;;;2.80;;
25615;SDS011;13482;48.234;13.006;2023-07-08T12:23:23;3.28;;;2.58;;
25615;SDS011;13482;48.234;13.006;2023-07-08T12:25:52;3.55;;;2.50;;
25615;SDS011;13482;48.234;13.006;2023-07-08T12:28:22;2.90;;;2.55;;
25615;SDS011;13482;48.234;13.006;2023-07-08T12:30:51;3.22;;;2.70;;
25615;SDS011;13482;48.234;13.006;2023-07-08T12:33:27;3.55;;;2.85;;
25615;SDS011;13482;48.234;13.006;2023-07-08T12:35:59;3.78;;;2.90;;
25615;SDS011;13482;48.234;13.006;2023-07-08T12:38:33;2.88;;;2.42;;
25615;SDS011;13482;48.234;13.006;2023-07-08T12:41:08;3.40;;;2.78;;
25615;SDS011;13482;48.234;13.006;2023-07-08T12:44:08;3.17;;;2.70;;
25615;SDS011;13482;48.234;13.006;2023-07-08T12:46:47;3.17;;;2.65;;
25615;SDS011;13482;48.234;13.006;2023-07-08T12:49:16;3.78;;;2.53;;
25615;SDS011;13482;48.234;13.006;2023-07-08T12:51:46;3.88;;;2.80;;
25615;SDS011;13482;48.234;13.006;2023-07-08T12:54:14;4.28;;;3.30;;
25615;SDS011;13482;48.234;13.006;2023-07-08T12:56:42;4.68;;;3.30;;
25615;SDS011;13482;48.234;13.006;2023-07-08T12:59:21;4.25;;;3.38;;
25615;SDS011;13482;48.234;13.006;2023-07-08T13:01:50;4.10;;;3.15;;
25615;SDS011;13482;48.234;13.006;2023-07-08T13:04:20;3.70;;;3.20;;
25615;SDS011;13482;48.234;13.006;2023-07-08T13:06:49;3.85;;;3.20;;
25615;SDS011;13482;48.234;13.006;2023-07-08T13:11:57;3.53;;;2.90;;
25615;SDS011;13482;48.234;13.006;2023-07-08T13:14:29;3.25;;;2.88;;
25615;SDS011;13482;48.234;13.006;2023-07-08T13:16:57;3.92;;;3.20;;
25615;SDS011;13482;48.234;13.006;2023-07-08T13:19:25;4.65;;;3.35;;
25615;SDS011;13482;48.234;13.006;2023-07-08T13:21:53;4.63;;;3.78;;
25615;SDS011;13482;48.234;13.006;2023-07-08T13:24:20;3.97;;;2.92;;
25615;SDS011;13482;48.234;13.006;2023-07-08T13:26:48;3.47;;;2.97;;
25615;SDS011;13482;48.234;13.006;2023-07-08T13:29:17;3.00;;;2.55;;
25615;SDS011;13482;48.234;13.006;2023-07-08T13:31:49;4.40;;;2.70;;
25615;SDS011;13482;48.234;13.006;2023-07-08T13:34:23;3.20;;;2.50;;
25615;SDS011;13482;48.234;13.006;2023-07-08T13:36:51;3.05;;;2.65;;
25615;SDS011;13482;48.234;13.006;2023-07-08T13:39:22;3.28;;;2.63;;
25615;SDS011;13482;48.234;13.006;2023-07-08T13:41:58;4.25;;;3.40;;
25615;SDS011;13482;48.234;13.006;2023-07-08T13:44:27;10.45;;;3.33;;
25615;SDS011;13482;48.234;13.006;2023-07-08T13:46:57;3.72;;;3.10;;
25615;SDS011;13482;48.234;13.006;2023-07-08T13:52:31;4.73;;;2.80;;
25615;SDS011;13482;48.234;13.006;2023-07-08T13:54:58;4.40;;;3.03;;
25615;SDS011;13482;48.234;13.006;2023-07-08T14:00:05;2.90;;;2.30;;
25615;SDS011;13482;48.234;13.006;2023-07-08T14:02:34;3.13;;;2.47;;
25615;SDS011;13482;48.234;13.006;2023-07-08T14:05:04;3.33;;;2.92;;
25615;SDS011;13482;48.234;13.006;2023-07-08T14:07:37;4.10;;;3.20;;
25615;SDS011;13482;48.234;13.006;2023-07-08T14:10:12;3.10;;;2.80;;
25615;SDS011;13482;48.234;13.006;2023-07-08T14:12:40;3.55;;;2.97;;
25615;SDS011;13482;48.234;13.006;2023-07-08T14:15:08;3.40;;;2.80;;
25615;SDS011;13482;48.234;13.006;2023-07-08T14:17:36;3.13;;;2.67;;
25615;SDS011;13482;48.234;13.006;2023-07-08T14:20:11;3.22;;;2.80;;
25615;SDS011;13482;48.234;13.006;2023-07-08T14:22:43;3.72;;;3.10;;
25615;SDS011;13482;48.234;13.006;2023-07-08T14:25:13;4.22;;;3.05;;
25615;SDS011;13482;48.234;13.006;2023-07-08T14:27:42;3.83;;;3.03;;
25615;SDS011;13482;48.234;13.006;2023-07-08T14:30:09;3.33;;;2.70;;
25615;SDS011;13482;48.234;13.006;2023-07-08T14:32:38;3.35;;;2.88;;
25615;SDS011;13482;48.234;13.006;2023-07-08T14:37:50;3.83;;;2.85;;
25615;SDS011;13482;48.234;13.006;2023-07-08T14:43:21;4.85;;;3.05;;
25615;SDS011;13482;48.234;13.006;2023-07-08T14:45:56;3.42;;;2.83;;
25615;SDS011;13482;48.234;13.006;2023-07-08T14:48:30;3.17;;;2.67;;
25615;SDS011;13482;48.234;13.006;2023-07-08T14:50:59;3.20;;;2.90;;
25615;SDS011;13482;48.234;13.006;2023-07-08T14:53:27;4.18;;;3.15;;
25615;SDS011;13482;48.234;13.006;2023-07-08T14:55:55;3.30;;;2.97;;
25615;SDS011;13482;48.234;13.006;2023-07-08T15:00:56;3.38;;;2.72;;
25615;SDS011;13482;48.234;13.006;2023-07-08T15:03:27;3.42;;;2.88;;
25615;SDS011;13482;48.234;13.006;2023-07-08T15:05:55;3.80;;;2.78;;
25615;SDS011;13482;48.234;13.006;2023-07-08T15:08:24;4.65;;;2.67;;
25615;SDS011;13482;48.234;13.006;2023-07-08T15:10:51;3.30;;;3.00;;
25615;SDS011;13482;48.234;13.006;2023-07-08T15:13:20;3.92;;;2.92;;
25615;SDS011;13482;48.234;13.006;2023-07-08T15:15:53;4.13;;;2.60;;
25615;SDS011;13482;48.234;13.006;2023-07-08T15:18:22;3.20;;;2.75;;
25615;SDS011;13482;48.234;13.006;2023-07-08T15:20:51;3.33;;;2.72;;
25615;SDS011;13482;48.234;13.006;2023-07-08T15:23:18;3.28;;;2.67;;
25615;SDS011;13482;48.234;13.006;2023-07-08T15:25:48;4.45;;;2.80;;
25615;SDS011;13482;48.234;13.006;2023-07-08T15:28:17;3.50;;;3.03;;
25615;SDS011;13482;48.234;13.006;2023-07-08T15:30:59;4.10;;;3.10;;
25615;SDS011;13482;48.234;13.006;2023-07-08T15:33:30;3.70;;;2.90;;
25615;SDS011;13482;48.234;13.006;2023-07-08T15:35:58;3.70;;;2.90;;
25615;SDS011;13482;48.234;13.006;2023-07-08T15:38:25;3.00;;;2.60;;
25615;SDS011;13482;48.234;13.006;2023-07-08T15:40:52;4.18;;;2.70;;
25615;SDS011;13482;48.234;13.006;2023-07-08T15:43:20;3.40;;;2.75;;
25615;SDS011;13482;48.234;13.006;2023-07-08T15:45:47;4.32;;;2.78;;
25615;SDS011;13482;48.234;13.006;2023-07-08T15:48:15;4.15;;;2.97;;
25615;SDS011;13482;48.234;13.006;2023-07-08T15:50:44;2.80;;;2.30;;
25615;SDS011;13482;48.234;13.006;2023-07-08T15:53:14;4.85;;;2.63;;
25615;SDS011;13482;48.234;13.006;2023-07-08T15:55:43;3.58;;;2.95;;
25615;SDS011;13482;48.234;13.006;2023-07-08T15:58:29;2.83;;;2.40;;
25615;SDS011;13482;48.234;13.006;2023-07-08T16:01:00;3.45;;;2.55;;
25615;SDS011;13482;48.234;13.006;2023-07-08T16:03:31;3.03;;;2.65;;
25615;SDS011;13482;48.234;13.006;2023-07-08T16:06:02;3.03;;;2.58;;
25615;SDS011;13482;48.234;13.006;2023-07-08T16:08:29;3.45;;;3.00;;
25615;SDS011;13482;48.234;13.006;2023-07-08T16:11:00;3.33;;;2.40;;
25615;SDS011;13482;48.234;13.006;2023-07-08T16:13:34;3.17;;;2.67;;
25615;SDS011;13482;48.234;13.006;2023-07-08T16:16:04;3.45;;;2.50;;
25615;SDS011;13482;48.234;13.006;2023-07-08T16:18:33;3.42;;;3.08;;
25615;SDS011;13482;48.234;13.006;2023-07-08T16:21:00;3.22;;;2.60;;
25615;SDS011;13482;48.234;13.006;2023-07-08T16:23:28;3.40;;;3.10;;